Time;durP1;ratioP1;P1;durP2;ratioP2;P2;SDS_P1;SDS_P2;PMS_P1;PMS_P2;Temp;Humidity;BMP_temperature;BMP_pressure;BME280_temperature;BME280_humidity;BME280_pressure;Samples;Min_cycle;Max_cycle;Signal;HPM_P1;HPM_P2
2022/07/13 00:01:30;;;;;;;2.13;1.63;;;16.90;98.00;;;;;;5071705;28;20828;-70
2022/07/13 00:03:59;;;;;;;1.60;1.23;;;16.90;98.00;;;;;;5071892;28;20464;-69
2022/07/13 00:06:26;;;;;;;2.70;1.60;;;17.00;98.00;;;;;;5071980;28;20461;-70
2022/07/13 00:08:53;;;;;;;1.60;1.40;;;17.20;98.00;;;;;;5071695;28;20457;-70
2022/07/13 00:11:22;;;;;;;2.10;1.50;;;17.10;98.00;;;;;;5071732;28;20600;-69
2022/07/13 00:13:49;;;;;;;2.87;1.70;;;16.90;98.00;;;;;;5071683;28;20942;-70
2022/07/13 00:16:16;;;;;;;1.60;1.50;;;16.90;98.00;;;;;;5071734;28;20457;-70
2022/07/13 00:18:43;;;;;;;1.57;1.37;;;16.70;98.00;;;;;;5071756;28;20464;-70
2022/07/13 00:21:12;;;;;;;1.50;1.37;;;16.60;98.00;;;;;;5070287;28;20465;-69
2022/07/13 00:23:39;;;;;;;1.70;1.40;;;16.60;98.00;;;;;;5070293;28;20506;-69
2022/07/13 00:26:07;;;;;;;3.10;1.73;;;16.70;98.00;;;;;;5071452;28;20632;-70
2022/07/13 00:28:34;;;;;;;2.80;1.50;;;16.70;98.00;;;;;;5070183;28;20464;-70
2022/07/13 00:31:01;;;;;;;1.50;1.40;;;16.60;98.00;;;;;;5070873;28;20853;-69
2022/07/13 00:33:28;;;;;;;1.93;1.43;;;16.60;98.00;;;;;;5071070;28;20969;-69
2022/07/13 00:35:56;;;;;;;2.03;1.63;;;16.60;98.00;;;;;;5070218;28;20824;-69
2022/07/13 00:38:24;;;;;;;2.13;1.63;;;16.70;98.00;;;;;;5071177;28;20964;-70
2022/07/13 00:40:51;;;;;;;2.37;1.50;;;16.60;98.00;;;;;;5070132;28;20469;-69
2022/07/13 00:43:19;;;;;;;2.40;1.40;;;16.50;98.00;;;;;;5070014;28;20456;-70
2022/07/13 00:45:46;;;;;;;1.73;1.63;;;16.50;98.00;;;;;;5071271;28;20449;-70
2022/07/13 00:48:15;;;;;;;1.60;1.50;;;16.40;98.00;;;;;;5070016;28;20943;-69
2022/07/13 00:50:42;;;;;;;1.30;1.20;;;16.40;98.00;;;;;;5071525;28;20485;-70
2022/07/13 00:53:10;;;;;;;2.03;1.60;;;16.30;98.00;;;;;;5071424;28;20471;-69
2022/07/13 00:55:39;;;;;;;1.50;1.40;;;16.40;98.00;;;;;;5071134;28;20456;-70
2022/07/13 00:58:09;;;;;;;1.63;1.30;;;16.40;98.00;;;;;;5069912;28;20464;-70
2022/07/13 01:00:36;;;;;;;2.03;1.40;;;16.40;98.00;;;;;;5071003;28;20460;-70
2022/07/13 01:03:05;;;;;;;1.50;1.30;;;16.50;98.00;;;;;;5070944;28;20950;-70
2022/07/13 01:05:33;;;;;;;1.73;1.50;;;16.50;98.00;;;;;;5071251;28;20464;-70
2022/07/13 01:08:00;;;;;;;1.60;1.30;;;16.60;98.00;;;;;;5070855;28;20539;-69
2022/07/13 01:10:27;;;;;;;3.20;1.50;;;16.40;98.00;;;;;;5070829;28;20492;-70
2022/07/13 01:12:58;;;;;;;4.17;1.70;;;16.50;98.00;;;;;;5070999;28;20824;-70
2022/07/13 01:15:25;;;;;;;1.77;1.50;;;16.50;98.00;;;;;;5071146;28;20457;-70
2022/07/13 01:17:53;;;;;;;2.30;1.20;;;16.50;98.00;;;;;;5070788;28;20467;-69
2022/07/13 01:20:23;;;;;;;5.93;1.70;;;16.30;98.00;;;;;;5070735;28;20974;-70
2022/07/13 01:22:53;;;;;;;1.90;1.57;;;16.20;98.00;;;;;;5070736;28;20518;-69
2022/07/13 01:25:22;;;;;;;2.50;1.67;;;16.00;98.00;;;;;;5070790;28;20456;-70
2022/07/13 01:27:50;;;;;;;1.40;1.27;;;15.90;98.00;;;;;;5070624;28;20449;-69
2022/07/13 01:30:17;;;;;;;1.70;1.40;;;16.00;98.00;;;;;;5070825;28;20877;-70
2022/07/13 01:32:46;;;;;;;1.90;1.43;;;16.00;98.00;;;;;;5070817;28;20484;-70
2022/07/13 01:35:14;;;;;;;1.70;1.53;;;16.00;98.00;;;;;;5070719;28;20459;-69
2022/07/13 01:37:42;;;;;;;2.37;1.50;;;15.90;98.00;;;;;;5070550;28;20510;-70
2022/07/13 01:40:12;;;;;;;1.80;1.60;;;15.80;98.00;;;;;;5070633;28;20475;-70
2022/07/13 01:42:45;;;;;;;2.27;1.60;;;15.60;98.00;;;;;;5070621;28;20452;-70
2022/07/13 01:45:13;;;;;;;1.40;1.10;;;15.60;98.00;;;;;;5073044;28;20452;-70
2022/07/13 01:47:40;;;;;;;1.30;1.20;;;15.70;98.00;;;;;;5074325;28;20479;-69
2022/07/13 01:50:09;;;;;;;1.97;1.57;;;15.70;98.00;;;;;;5074317;28;20477;-70
2022/07/13 01:52:37;;;;;;;1.30;1.20;;;15.60;98.00;;;;;;5074508;28;20467;-70
2022/07/13 01:55:04;;;;;;;2.20;1.40;;;15.50;98.00;;;;;;5073347;28;20441;-70
2022/07/13 01:57:40;;;;;;;1.70;1.47;;;15.60;98.00;;;;;;5074300;28;20470;-70
2022/07/13 02:00:12;;;;;;;1.50;1.30;;;15.50;98.00;;;;;;5072612;28;20452;-70
2022/07/13 02:02:40;;;;;;;1.50;1.40;;;15.40;98.00;;;;;;5074194;28;20462;-71
2022/07/13 02:05:09;;;;;;;2.10;1.47;;;15.40;98.00;;;;;;5073772;28;20456;-70
2022/07/13 02:07:36;;;;;;;1.50;1.20;;;15.30;98.00;;;;;;5072800;28;20460;-70
2022/07/13 02:10:05;;;;;;;4.50;1.63;;;15.30;98.00;;;;;;5073996;28;20477;-70
2022/07/13 02:12:32;;;;;;;1.40;1.30;;;15.30;98.00;;;;;;5073933;28;20457;-71
2022/07/13 02:14:59;;;;;;;1.77;1.57;;;15.30;98.00;;;;;;5073820;28;20822;-71
2022/07/13 02:17:28;;;;;;;2.20;1.43;;;15.30;98.00;;;;;;5056262;28;20469;-71
2022/07/13 02:19:57;;;;;;;1.30;1.23;;;15.30;98.00;;;;;;5073912;28;20468;-70
2022/07/13 02:22:24;;;;;;;1.50;1.30;;;15.40;98.00;;;;;;5073786;28;20493;-70
2022/07/13 02:24:51;;;;;;;1.57;1.30;;;15.50;98.00;;;;;;5073758;28;20453;-70
2022/07/13 02:27:18;;;;;;;3.43;1.67;;;15.40;98.00;;;;;;5072341;28;20560;-70
2022/07/13 02:29:45;;;;;;;1.90;1.57;;;15.30;98.00;;;;;;5072496;28;20969;-70
2022/07/13 02:32:13;;;;;;;1.63;1.10;;;15.30;98.00;;;;;;5073632;28;20457;-70
2022/07/13 02:34:41;;;;;;;1.90;1.50;;;15.20;98.00;;;;;;5072447;28;20449;-71
2022/07/13 02:37:11;;;;;;;1.30;1.10;;;15.30;98.00;;;;;;5073530;28;20457;-71
2022/07/13 02:39:39;;;;;;;2.13;1.80;;;15.40;98.00;;;;;;5073254;28;20503;-70
2022/07/13 02:42:09;;;;;;;2.43;1.50;;;15.50;98.00;;;;;;5072242;28;20452;-70
2022/07/13 02:44:36;;;;;;;1.93;1.50;;;15.60;98.00;;;;;;5073461;28;20479;-71
2022/07/13 02:47:03;;;;;;;2.43;1.50;;;15.50;98.00;;;;;;5073472;28;20463;-70
2022/07/13 02:49:30;;;;;;;1.73;1.40;;;15.40;98.00;;;;;;5073394;28;20452;-70
2022/07/13 02:51:59;;;;;;;1.40;1.30;;;15.30;98.00;;;;;;5072042;28;20488;-70
2022/07/13 02:54:26;;;;;;;1.90;1.63;;;15.30;98.00;;;;;;5073400;28;20497;-70
2022/07/13 02:56:56;;;;;;;1.83;1.30;;;15.30;98.00;;;;;;5073148;28;20449;-70
2022/07/13 02:59:23;;;;;;;1.47;1.37;;;15.40;98.00;;;;;;5071890;28;20456;-71
2022/07/13 03:01:51;;;;;;;1.87;1.50;;;15.60;98.00;;;;;;5073116;28;20448;-71
2022/07/13 03:04:18;;;;;;;1.97;1.43;;;15.60;98.00;;;;;;5072946;28;20472;-71
2022/07/13 03:06:45;;;;;;;1.43;1.40;;;15.60;98.00;;;;;;5072938;28;20530;-71
2022/07/13 03:09:14;;;;;;;1.40;1.37;;;15.70;98.00;;;;;;5072998;28;20965;-71
2022/07/13 03:11:41;;;;;;;2.10;1.60;;;15.70;98.00;;;;;;5072717;28;20489;-71
2022/07/13 03:14:09;;;;;;;2.67;1.67;;;15.80;98.00;;;;;;5072886;28;20984;-71
2022/07/13 03:16:37;;;;;;;4.03;2.03;;;15.80;98.00;;;;;;5071609;28;20453;-71
2022/07/13 03:19:04;;;;;;;1.40;1.37;;;15.60;98.00;;;;;;5072744;28;20452;-71
2022/07/13 03:21:31;;;;;;;1.50;1.40;;;15.30;98.00;;;;;;5072333;28;20989;-71
2022/07/13 03:23:59;;;;;;;1.80;1.40;;;15.20;98.00;;;;;;5072775;28;20514;-71
2022/07/13 03:26:27;;;;;;;1.63;1.30;;;15.10;98.00;;;;;;5072333;28;20472;-71
2022/07/13 03:28:55;;;;;;;2.13;1.30;;;15.00;98.00;;;;;;5072508;28;20460;-71
2022/07/13 03:31:22;;;;;;;1.57;1.30;;;14.90;98.00;;;;;;5072320;28;20484;-71
2022/07/13 03:33:49;;;;;;;1.40;1.30;;;14.90;98.00;;;;;;5072682;28;20453;-71
2022/07/13 03:36:16;;;;;;;2.00;1.60;;;14.90;98.00;;;;;;5072127;28;20861;-70
2022/07/13 03:38:43;;;;;;;2.33;1.60;;;14.80;98.00;;;;;;5072328;28;20483;-70
2022/07/13 03:41:10;;;;;;;1.40;1.20;;;14.70;98.00;;;;;;5072023;28;20464;-70
2022/07/13 03:43:39;;;;;;;1.50;1.20;;;14.70;98.00;;;;;;5072134;28;20457;-70
2022/07/13 03:46:06;;;;;;;1.77;1.30;;;14.80;98.00;;;;;;5072190;28;20453;-70
2022/07/13 03:48:33;;;;;;;2.00;1.50;;;14.90;98.00;;;;;;5070732;28;20549;-70
2022/07/13 03:51:01;;;;;;;1.50;1.30;;;14.80;98.00;;;;;;5072193;28;21021;-70
2022/07/13 03:53:30;;;;;;;2.13;1.30;;;14.70;98.00;;;;;;5072091;28;20449;-70
2022/07/13 03:55:58;;;;;;;1.93;1.30;;;14.70;98.00;;;;;;5072417;28;20504;-70
2022/07/13 03:58:25;;;;;;;2.57;1.57;;;14.70;98.00;;;;;;5071994;28;20468;-70
2022/07/13 04:00:54;;;;;;;1.63;1.27;;;14.70;98.00;;;;;;5070864;28;20477;-70
2022/07/13 04:03:21;;;;;;;1.80;1.33;;;14.50;98.00;;;;;;5071775;28;20451;-70
2022/07/13 04:05:48;;;;;;;2.03;1.50;;;14.60;98.00;;;;;;5071864;28;20456;-71
2022/07/13 04:08:15;;;;;;;1.37;1.27;;;14.60;98.00;;;;;;5071339;28;20457;-71
2022/07/13 04:10:42;;;;;;;2.00;1.60;;;14.70;98.00;;;;;;5071807;28;20511;-71
2022/07/13 04:13:09;;;;;;;3.60;1.73;;;14.60;98.00;;;;;;5072135;28;20449;-70
2022/07/13 04:15:36;;;;;;;1.67;1.40;;;14.50;98.00;;;;;;5071872;28;20460;-71
2022/07/13 04:18:12;;;;;;;2.87;1.80;;;14.50;98.00;;;;;;5071820;28;20449;-71
2022/07/13 04:20:39;;;;;;;1.93;1.50;;;14.50;98.00;;;;;;5071468;28;20448;-71
2022/07/13 04:23:06;;;;;;;2.07;1.60;;;14.50;98.00;;;;;;5070384;28;20468;-71
2022/07/13 04:25:34;;;;;;;2.47;1.70;;;14.50;98.00;;;;;;5071399;28;20457;-71
2022/07/13 04:28:01;;;;;;;1.93;1.40;;;14.60;98.00;;;;;;5071601;28;20475;-71
2022/07/13 04:30:29;;;;;;;1.33;1.30;;;14.80;98.00;;;;;;5071349;28;20481;-71
2022/07/13 04:32:56;;;;;;;2.83;1.83;;;14.90;98.00;;;;;;5071349;28;20467;-71
2022/07/13 04:35:25;;;;;;;2.47;1.50;;;14.90;98.00;;;;;;5071330;28;20822;-71
2022/07/13 04:37:52;;;;;;;1.70;1.33;;;14.80;98.00;;;;;;5071631;28;20464;-71
2022/07/13 04:40:20;;;;;;;3.77;1.70;;;14.70;98.00;;;;;;5071439;28;20462;-71
2022/07/13 04:42:47;;;;;;;3.20;1.60;;;14.80;98.00;;;;;;5071240;28;20460;-71
2022/07/13 04:45:14;;;;;;;2.17;1.53;;;15.00;98.00;;;;;;5071301;28;20934;-71
2022/07/13 04:47:41;;;;;;;1.60;1.33;;;15.00;98.00;;;;;;5069857;28;20459;-70
2022/07/13 04:50:09;;;;;;;1.20;1.20;;;15.00;98.00;;;;;;5071330;28;20453;-71
2022/07/13 04:52:37;;;;;;;2.80;1.40;;;15.10;98.00;;;;;;5071094;28;20525;-70
2022/07/13 04:55:05;;;;;;;1.40;1.10;;;15.20;98.00;;;;;;5071256;28;20461;-71
2022/07/13 04:57:33;;;;;;;1.80;1.30;;;15.30;98.00;;;;;;5071194;28;20456;-71
2022/07/13 05:00:00;;;;;;;2.00;1.70;;;15.40;98.00;;;;;;5070056;28;20449;-71
2022/07/13 05:02:28;;;;;;;1.87;1.50;;;15.50;98.00;;;;;;5071317;28;20461;-71
2022/07/13 05:04:55;;;;;;;2.13;1.70;;;15.50;98.00;;;;;;5071106;28;20453;-71
2022/07/13 05:07:22;;;;;;;2.30;1.70;;;15.60;98.00;;;;;;5070959;28;20510;-71
2022/07/13 05:09:50;;;;;;;2.30;1.77;;;15.70;98.00;;;;;;5071093;28;20799;-71
2022/07/13 05:12:17;;;;;;;1.80;1.47;;;15.90;98.00;;;;;;5070820;28;20485;-71
2022/07/13 05:14:45;;;;;;;2.00;1.50;;;16.10;98.00;;;;;;5071230;28;20514;-71
2022/07/13 05:17:13;;;;;;;3.03;2.03;;;16.20;98.00;;;;;;5070876;28;20461;-71
2022/07/13 05:19:40;;;;;;;2.23;1.60;;;16.50;98.00;;;;;;5072412;28;20456;-71
2022/07/13 05:22:08;;;;;;;2.37;1.80;;;16.50;98.00;;;;;;5074909;28;20452;-72
2022/07/13 05:24:36;;;;;;;1.70;1.53;;;16.50;98.00;;;;;;5075034;28;20453;-74
2022/07/13 05:27:04;;;;;;;1.60;1.50;;;16.50;98.00;;;;;;5074915;28;20455;-73
2022/07/13 05:29:31;;;;;;;2.70;1.90;;;16.50;98.00;;;;;;5074865;28;20465;-74
2022/07/13 05:32:00;;;;;;;1.90;1.60;;;16.40;98.00;;;;;;5074571;28;20480;-70
2022/07/13 05:34:27;;;;;;;2.57;1.93;;;16.30;98.00;;;;;;5073587;28;20471;-72
2022/07/13 05:36:55;;;;;;;1.43;1.37;;;16.30;98.00;;;;;;5074830;28;20464;-74
2022/07/13 05:39:22;;;;;;;1.90;1.30;;;16.40;98.00;;;;;;5074445;28;20464;-73
2022/07/13 05:41:50;;;;;;;2.43;1.50;;;16.40;98.00;;;;;;5074412;28;20440;-72
2022/07/13 05:44:19;;;;;;;6.10;1.70;;;16.50;98.00;;;;;;5074553;28;20464;-71
2022/07/13 05:46:46;;;;;;;1.83;1.70;;;16.70;98.00;;;;;;5074529;28;20464;-73
2022/07/13 05:49:13;;;;;;;2.83;2.00;;;16.80;98.00;;;;;;5074626;28;20448;-71
2022/07/13 05:51:40;;;;;;;2.23;1.43;;;17.00;98.00;;;;;;5074392;28;20512;-74
2022/07/13 05:54:07;;;;;;;2.83;2.07;;;17.10;98.00;;;;;;5074691;28;20464;-74
2022/07/13 05:56:34;;;;;;;2.70;1.80;;;17.30;98.00;;;;;;5074379;28;20455;-73
2022/07/13 05:59:01;;;;;;;2.73;1.70;;;17.50;98.00;;;;;;5074617;28;20958;-67
2022/07/13 06:01:32;;;;;;;2.50;1.63;;;17.60;98.00;;;;;;5074246;28;20794;-67
2022/07/13 06:04:00;;;;;;;3.00;1.73;;;17.80;98.00;;;;;;5074158;28;20942;-67
2022/07/13 06:06:27;;;;;;;1.60;1.50;;;18.00;98.00;;;;;;5072925;28;20494;-67
2022/07/13 06:08:54;;;;;;;2.37;1.30;;;18.20;98.00;;;;;;5074030;28;20457;-67
2022/07/13 06:11:21;;;;;;;1.97;1.40;;;18.60;98.00;;;;;;5074192;28;20473;-67
2022/07/13 06:13:48;;;;;;;3.10;1.47;;;18.90;98.00;;;;;;5074125;28;20853;-67
2022/07/13 06:16:15;;;;;;;3.53;2.07;;;19.10;98.00;;;;;;5073920;28;20463;-66
2022/07/13 06:18:43;;;;;;;1.50;1.50;;;19.30;98.00;;;;;;5073728;28;20452;-67
2022/07/13 06:21:11;;;;;;;1.70;1.63;;;19.50;98.00;;;;;;5060746;28;20971;-67
2022/07/13 06:23:38;;;;;;;2.70;2.00;;;19.60;98.00;;;;;;5051216;28;20464;-67
2022/07/13 06:26:05;;;;;;;6.30;2.17;;;19.70;98.00;;;;;;5051266;28;20851;-67
2022/07/13 06:28:33;;;;;;;2.10;1.83;;;19.70;98.00;;;;;;5051287;28;20645;-64
2022/07/13 06:31:01;;;;;;;3.00;1.70;;;19.90;98.00;;;;;;5049294;28;20467;-67
2022/07/13 06:33:28;;;;;;;3.17;1.70;;;20.00;98.00;;;;;;5050908;28;20642;-67
2022/07/13 06:35:56;;;;;;;3.07;2.00;;;20.10;98.00;;;;;;5051321;28;20465;-67
2022/07/13 06:38:24;;;;;;;2.30;1.70;;;20.30;98.00;;;;;;5050560;28;20473;-66
2022/07/13 06:40:53;;;;;;;2.40;1.80;;;20.50;98.00;;;;;;5049816;28;20454;-67
2022/07/13 06:43:20;;;;;;;2.40;1.70;;;20.80;98.00;;;;;;5050531;28;20446;-67
2022/07/13 06:45:52;;;;;;;2.33;1.83;;;20.90;98.00;;;;;;5050488;28;20466;-66
2022/07/13 06:48:19;;;;;;;2.33;2.00;;;21.20;98.00;;;;;;5051110;28;20462;-67
2022/07/13 06:50:47;;;;;;;1.87;1.63;;;21.40;98.00;;;;;;5050166;28;20449;-67
2022/07/13 06:53:16;;;;;;;4.13;2.30;;;21.60;98.00;;;;;;5050679;28;20790;-67
2022/07/13 06:55:45;;;;;;;4.70;2.50;;;21.70;98.00;;;;;;5051628;28;20464;-68
2022/07/13 06:58:12;;;;;;;3.03;1.97;;;21.70;98.00;;;;;;5053178;28;20462;-67
2022/07/13 07:00:39;;;;;;;2.40;1.80;;;21.90;98.00;;;;;;5053224;28;20450;-67
2022/07/13 07:03:06;;;;;;;2.07;1.80;;;22.10;98.00;;;;;;5053009;28;20454;-67
2022/07/13 07:05:33;;;;;;;2.47;1.90;;;22.10;98.00;;;;;;5052979;28;20971;-66
2022/07/13 07:08:02;;;;;;;3.40;2.13;;;22.00;98.00;;;;;;5052834;28;20460;-66
2022/07/13 07:10:30;;;;;;;1.40;1.40;;;21.90;98.00;;;;;;5051727;28;20453;-67
2022/07/13 07:13:04;;;;;;;2.80;1.93;;;21.80;98.00;;;;;;5052851;28;20552;-67
2022/07/13 07:15:31;;;;;;;3.47;1.80;;;21.80;98.00;;;;;;5052825;28;20464;-66
2022/07/13 07:18:00;;;;;;;3.50;1.87;;;21.90;98.00;;;;;;5052812;28;20457;-67
2022/07/13 07:20:27;;;;;;;2.30;1.73;;;22.10;98.00;;;;;;5053099;28;20469;-66
2022/07/13 07:22:55;;;;;;;4.00;2.00;;;22.30;98.00;;;;;;5052724;28;20821;-66
2022/07/13 07:25:22;;;;;;;3.37;2.20;;;22.40;98.00;;;;;;5052572;28;20832;-66
2022/07/13 07:27:51;;;;;;;2.30;1.83;;;22.50;98.00;;;;;;5052692;28;20461;-69
2022/07/13 07:30:19;;;;;;;1.90;1.60;;;22.40;98.00;;;;;;5052626;28;20464;-68
2022/07/13 07:32:46;;;;;;;3.17;1.90;;;22.30;98.00;;;;;;5052515;28;20481;-62
2022/07/13 07:35:13;;;;;;;2.27;1.80;;;22.20;98.00;;;;;;5052428;28;20976;-64
2022/07/13 07:37:40;;;;;;;3.20;2.00;;;22.20;98.00;;;;;;5051057;28;20469;-69
2022/07/13 07:40:10;;;;;;;3.63;1.77;;;22.20;98.00;;;;;;5052401;28;20481;-72
2022/07/13 07:42:37;;;;;;;2.63;1.90;;;22.30;98.00;;;;;;5051815;28;20453;-62
2022/07/13 07:45:08;;;;;;;1.90;1.77;;;22.40;98.00;;;;;;5052415;28;20520;-72
2022/07/13 07:47:35;;;;;;;1.83;1.70;;;22.50;98.00;;;;;;5052189;28;20483;-72
2022/07/13 07:50:03;;;;;;;4.57;2.07;;;22.60;98.00;;;;;;5052251;28;20446;-70
2022/07/13 07:52:30;;;;;;;2.67;2.20;;;22.70;98.00;;;;;;5050820;28;20489;-70
2022/07/13 07:54:57;;;;;;;2.90;1.93;;;22.90;98.00;;;;;;5051172;28;20469;-66
2022/07/13 07:57:24;;;;;;;2.23;1.90;;;23.20;98.00;;;;;;5051042;28;20463;-70
2022/07/13 07:59:52;;;;;;;2.30;1.80;;;23.30;97.50;;;;;;5052409;28;20465;-73
2022/07/13 08:02:22;;;;;;;2.10;1.80;;;23.40;96.60;;;;;;5052152;28;20462;-70
2022/07/13 08:04:49;;;;;;;1.90;1.63;;;23.60;97.30;;;;;;5052062;28;20457;-63
2022/07/13 08:07:16;;;;;;;2.50;2.00;;;23.70;97.00;;;;;;5051038;28;20458;-63
2022/07/13 08:09:43;;;;;;;2.23;1.77;;;23.80;96.10;;;;;;5052245;28;20457;-63
2022/07/13 08:12:11;;;;;;;3.33;1.93;;;24.10;95.70;;;;;;5051680;28;20482;-63
2022/07/13 08:14:38;;;;;;;2.30;1.70;;;24.30;96.20;;;;;;5051761;28;20537;-68
2022/07/13 08:17:06;;;;;;;2.30;1.70;;;24.50;94.50;;;;;;5051963;28;20454;-67
2022/07/13 08:19:34;;;;;;;1.97;1.70;;;24.70;93.50;;;;;;5050389;28;20442;-67
2022/07/13 08:22:01;;;;;;;2.60;1.80;;;24.90;92.70;;;;;;5051499;28;20511;-67
2022/07/13 08:24:28;;;;;;;2.70;2.00;;;24.90;92.90;;;;;;5051639;28;20470;-65
2022/07/13 08:26:57;;;;;;;1.73;1.60;;;25.00;93.60;;;;;;5051829;28;20501;-66
2022/07/13 08:29:24;;;;;;;2.67;1.90;;;25.10;93.20;;;;;;5050342;28;20840;-66
2022/07/13 08:31:51;;;;;;;2.00;1.70;;;25.30;91.70;;;;;;5051358;28;20517;-67
2022/07/13 08:39:49;;;;;;;2.33;1.90;;;25.70;90.80;;;;;;5051331;28;20588;-63
2022/07/13 08:42:17;;;;;;;3.30;2.03;;;25.90;89.70;;;;;;5051139;28;20457;-63
2022/07/13 08:44:44;;;;;;;2.20;1.60;;;26.10;89.40;;;;;;5051416;28;20466;-63
2022/07/13 08:47:11;;;;;;;3.50;2.57;;;26.40;89.00;;;;;;5051390;28;20453;-63
2022/07/13 08:49:38;;;;;;;1.70;1.70;;;26.70;89.90;;;;;;5051612;28;20507;-62
2022/07/13 08:52:08;;;;;;;3.13;1.93;;;26.90;87.60;;;;;;5051335;28;20849;-63
2022/07/13 08:54:35;;;;;;;2.53;1.70;;;27.00;87.40;;;;;;5051179;28;20963;-63
2022/07/13 08:57:02;;;;;;;3.30;2.10;;;27.10;87.00;;;;;;5051488;28;20812;-63
2022/07/13 08:59:33;;;;;;;2.53;1.60;;;27.00;85.50;;;;;;5051204;28;20458;-63
2022/07/13 09:02:00;;;;;;;1.93;1.63;;;27.00;87.40;;;;;;5051156;28;20975;-64
2022/07/13 09:04:27;;;;;;;3.23;1.97;;;27.00;86.50;;;;;;5049746;28;20493;-65
2022/07/13 09:06:56;;;;;;;1.90;1.53;;;27.00;86.80;;;;;;5051465;28;20453;-64
2022/07/13 09:09:33;;;;;;;2.10;1.80;;;27.10;85.40;;;;;;5051270;28;20460;-65
2022/07/13 09:12:20;;;;;;;2.90;1.70;;;27.30;84.30;;;;;;5051026;28;21007;-65
2022/07/13 09:14:52;;;;;;;3.00;2.13;;;27.20;84.70;;;;;;5051097;28;20454;-65
2022/07/13 09:17:31;;;;;;;1.67;1.60;;;27.30;84.40;;;;;;5050901;28;20450;-65
2022/07/13 09:20:01;;;;;;;2.20;1.80;;;27.40;83.90;;;;;;5050959;28;20469;-65
2022/07/13 09:22:29;;;;;;;1.70;1.50;;;27.50;83.70;;;;;;5050864;28;20458;-65
2022/07/13 09:24:58;;;;;;;2.63;1.90;;;27.60;83.70;;;;;;5050376;28;20462;-65
2022/07/13 09:27:25;;;;;;;2.30;1.80;;;27.70;83.00;;;;;;5050732;28;20462;-64
2022/07/13 09:29:52;;;;;;;2.40;1.90;;;27.70;84.00;;;;;;5050656;28;20462;-65
2022/07/13 09:32:19;;;;;;;2.70;1.70;;;27.90;83.70;;;;;;5050906;28;20576;-65
2022/07/13 09:34:50;;;;;;;2.57;1.90;;;28.00;83.10;;;;;;5052036;28;20460;-65
2022/07/13 09:37:19;;;;;;;2.70;1.77;;;28.10;80.90;;;;;;5051996;28;20496;-65
2022/07/13 09:40:05;;;;;;;2.20;1.73;;;28.10;81.30;;;;;;5050953;28;20556;-65
2022/07/13 09:42:34;;;;;;;2.10;1.70;;;28.20;83.90;;;;;;5047675;28;20466;-64
2022/07/13 09:47:48;;;;;;;2.43;1.87;;;28.50;80.50;;;;;;5050001;28;20445;-65
2022/07/13 09:50:17;;;;;;;2.60;1.80;;;28.70;80.10;;;;;;5048445;28;20450;-65
2022/07/13 09:52:46;;;;;;;2.37;1.97;;;28.70;80.30;;;;;;5048039;28;20493;-65
2022/07/13 09:55:19;;;;;;;2.30;1.80;;;28.80;79.20;;;;;;5047709;28;20462;-65
2022/07/13 09:57:50;;;;;;;1.80;1.67;;;29.00;77.90;;;;;;5048503;28;20866;-65
2022/07/13 10:00:20;;;;;;;1.98;1.80;;;29.20;78.20;;;;;;5048397;28;20350;-66
2022/07/13 10:02:49;;;;;;;2.30;1.80;;;29.40;77.50;;;;;;5048172;28;20211;-71
2022/07/13 10:05:17;;;;;;;1.90;1.60;;;29.40;77.40;;;;;;5047645;28;20469;-72
2022/07/13 10:07:46;;;;;;;2.03;1.60;;;29.40;76.70;;;;;;5052122;28;20454;-67
2022/07/13 10:10:16;;;;;;;2.50;1.87;;;29.40;76.90;;;;;;5051628;28;20465;-69
2022/07/13 10:12:44;;;;;;;2.60;1.80;;;29.50;78.00;;;;;;5051738;28;20477;-68
2022/07/13 10:15:13;;;;;;;1.83;1.70;;;29.50;76.10;;;;;;5051851;28;20457;-73
2022/07/13 10:17:42;;;;;;;1.97;1.60;;;29.70;75.70;;;;;;5051539;28;20456;-72
2022/07/13 10:20:12;;;;;;;2.13;1.80;;;29.90;76.10;;;;;;5051349;28;20453;-72
2022/07/13 10:22:43;;;;;;;2.50;1.73;;;30.00;75.10;;;;;;5051492;28;20473;-71
2022/07/13 10:25:10;;;;;;;1.93;1.70;;;30.00;73.60;;;;;;5051481;28;20465;-70
2022/07/13 10:27:41;;;;;;;2.30;1.73;;;30.00;73.10;;;;;;5051571;28;20457;-71
2022/07/13 10:30:11;;;;;;;2.00;1.70;;;30.10;71.40;;;;;;5051260;28;20458;-70
2022/07/13 10:32:39;;;;;;;2.13;1.93;;;30.10;72.80;;;;;;5051342;28;20481;-70
2022/07/13 10:35:10;;;;;;;2.00;1.70;;;30.30;73.80;;;;;;5050929;28;20458;-72
2022/07/13 10:38:10;;;;;;;2.03;1.83;;;30.40;72.10;;;;;;5050737;28;20472;-72
2022/07/13 10:40:38;;;;;;;1.80;1.70;;;30.70;72.40;;;;;;5051071;28;20462;-70
2022/07/13 10:43:19;;;;;;;2.63;1.70;;;30.90;70.80;;;;;;5051116;28;20461;-71
2022/07/13 10:45:51;;;;;;;1.83;1.60;;;31.00;69.70;;;;;;5050912;28;20853;-71
2022/07/13 10:48:45;;;;;;;1.93;1.60;;;31.00;68.50;;;;;;5050770;28;20468;-70
2022/07/13 10:51:20;;;;;;;2.30;1.80;;;31.10;70.10;;;;;;5013415;28;20484;-67
2022/07/13 10:54:09;;;;;;;1.70;1.63;;;31.20;69.30;;;;;;5050540;28;20587;-66
2022/07/13 10:56:36;;;;;;;1.60;1.60;;;31.30;67.50;;;;;;5050726;28;20457;-71
2022/07/13 10:59:07;;;;;;;2.30;1.53;;;31.50;67.30;;;;;;5050754;28;20457;-73
2022/07/13 11:01:48;;;;;;;2.00;1.60;;;31.70;63.40;;;;;;5050888;28;20504;-72
2022/07/13 11:04:17;;;;;;;1.50;1.43;;;31.90;63.00;;;;;;5050588;28;20824;-70
2022/07/13 11:07:05;;;;;;;1.90;1.80;;;32.10;60.30;;;;;;5050816;28;20457;-69
2022/07/13 11:09:32;;;;;;;2.13;1.60;;;32.20;60.80;;;;;;5050862;28;20485;-69
2022/07/13 11:11:59;;;;;;;1.70;1.50;;;32.40;60.90;;;;;;5050332;28;20450;-68
2022/07/13 11:14:54;;;;;;;2.43;1.57;;;32.30;60.30;;;;;;5050631;28;20513;-68
2022/07/13 11:17:24;;;;;;;1.80;1.60;;;32.40;61.70;;;;;;5049095;28;21889;-68
2022/07/13 11:19:54;;;;;;;2.10;1.63;;;32.50;60.60;;;;;;5050238;28;20507;-68
2022/07/13 11:22:21;;;;;;;1.60;1.50;;;32.60;60.40;;;;;;5050183;28;20966;-68
2022/07/13 11:25:16;;;;;;;3.03;1.90;;;32.60;60.00;;;;;;5050200;28;20502;-75
2022/07/13 11:28:08;;;;;;;1.90;1.67;;;32.50;59.20;;;;;;5049979;28;20465;-75
2022/07/13 11:30:37;;;;;;;1.43;1.40;;;32.50;61.70;;;;;;5046956;28;20462;-66
2022/07/13 11:33:11;;;;;;;1.40;1.40;;;32.40;59.30;;;;;;5051065;28;20999;-79
2022/07/13 11:35:39;;;;;;;1.97;1.80;;;32.60;59.80;;;;;;5048766;28;20498;-79
2022/07/13 11:38:08;;;;;;;2.53;1.67;;;32.80;60.20;;;;;;5049812;28;20543;-80
2022/07/13 11:40:35;;;;;;;1.57;1.43;;;32.80;59.50;;;;;;5049898;28;20465;-79
2022/07/13 11:43:03;;;;;;;1.80;1.60;;;32.80;58.70;;;;;;5050167;28;20468;-79
2022/07/13 11:45:32;;;;;;;1.97;1.70;;;32.70;58.30;;;;;;5048362;28;20986;-78
2022/07/13 11:48:01;;;;;;;1.57;1.40;;;32.70;59.60;;;;;;5049657;28;20462;-76
2022/07/13 11:50:47;;;;;;;1.40;1.30;;;32.70;59.60;;;;;;5047607;28;20466;-76
2022/07/13 11:53:25;;;;;;;1.73;1.50;;;32.90;58.10;;;;;;5049349;28;20500;-77
2022/07/13 11:55:54;;;;;;;2.40;1.77;;;33.30;59.50;;;;;;5049790;28;20822;-79
2022/07/13 11:58:25;;;;;;;1.60;1.60;;;33.60;57.90;;;;;;5049783;28;20464;-78
2022/07/13 12:00:53;;;;;;;1.90;1.70;;;34.00;59.90;;;;;;5049727;28;20450;-78
2022/07/13 12:03:31;;;;;;;2.20;1.60;;;34.20;59.00;;;;;;5048220;28;20457;-75
2022/07/13 12:06:05;;;;;;;1.77;1.50;;;34.40;58.90;;;;;;5048269;28;20468;-76
2022/07/13 12:08:35;;;;;;;1.70;1.50;;;34.50;59.00;;;;;;5049273;28;20465;-78
2022/07/13 12:11:04;;;;;;;1.73;1.50;;;34.50;56.80;;;;;;5049365;28;20508;-76
2022/07/13 12:13:33;;;;;;;1.57;1.33;;;34.30;55.90;;;;;;5048948;28;20490;-76
2022/07/13 12:16:00;;;;;;;1.77;1.60;;;34.30;57.40;;;;;;5048844;28;20454;-77
2022/07/13 12:18:28;;;;;;;2.00;1.50;;;34.30;56.70;;;;;;5048734;28;20453;-76
2022/07/13 12:20:56;;;;;;;1.80;1.50;;;34.60;58.10;;;;;;5049218;28;20850;-75
2022/07/13 12:23:27;;;;;;;2.23;1.50;;;34.70;56.40;;;;;;5048859;28;20461;-75
2022/07/13 12:26:09;;;;;;;1.53;1.43;;;35.00;57.60;;;;;;5047658;28;20464;-76
2022/07/13 12:28:39;;;;;;;1.77;1.60;;;35.10;54.60;;;;;;5046106;28;20457;-75
2022/07/13 12:31:07;;;;;;;2.27;1.70;;;35.10;54.40;;;;;;5048990;28;20507;-77
2022/07/13 12:33:43;;;;;;;1.73;1.60;;;35.00;55.60;;;;;;5048744;28;20481;-76
2022/07/13 12:36:19;;;;;;;1.70;1.53;;;34.60;55.10;;;;;;5040711;28;20461;-77
2022/07/13 12:39:02;;;;;;;1.90;1.57;;;34.40;54.60;;;;;;5048153;28;20583;-77
2022/07/13 12:41:34;;;;;;;1.67;1.60;;;34.30;54.00;;;;;;5048685;28;20768;-77
2022/07/13 12:44:04;;;;;;;1.90;1.67;;;34.40;54.40;;;;;;5048437;28;20544;-78
2022/07/13 12:47:01;;;;;;;2.00;1.70;;;34.50;55.20;;;;;;5048649;28;20449;-73
2022/07/13 12:49:29;;;;;;;1.50;1.50;;;34.60;56.20;;;;;;5046223;28;20458;-72
2022/07/13 12:52:03;;;;;;;1.63;1.63;;;34.60;59.00;;;;;;5048466;28;20454;-72
2022/07/13 12:54:49;;;;;;;1.60;1.50;;;34.50;57.50;;;;;;5048536;28;21007;-74
2022/07/13 12:57:17;;;;;;;1.70;1.50;;;34.40;55.10;;;;;;5048339;28;20965;-71
2022/07/13 13:00:05;;;;;;;2.17;1.77;;;34.40;55.00;;;;;;5048307;28;20951;-71
2022/07/13 13:02:32;;;;;;;1.47;1.43;;;34.40;56.30;;;;;;5048371;28;20457;-73
2022/07/13 13:05:00;;;;;;;1.97;1.60;;;34.60;55.20;;;;;;5048559;28;20465;-73
2022/07/13 13:07:27;;;;;;;2.10;1.50;;;34.50;54.20;;;;;;5048279;28;20456;-72